sensor_id;sensor_type;location;lat;lon;timestamp;P1;durP1;ratioP1;P2;durP2;ratioP2
14056;SDS011;7103;54.300;10.180;2023-03-14T00:01:30;0.30;;;0.30;;
14056;SDS011;7103;54.300;10.180;2023-03-14T00:03:57;0.20;;;0.20;;
14056;SDS011;7103;54.300;10.180;2023-03-14T00:06:24;0.20;;;0.20;;
14056;SDS011;7103;54.300;10.180;2023-03-14T00:08:51;0.20;;;0.20;;
14056;SDS011;7103;54.300;10.180;2023-03-14T00:11:20;0.20;;;0.20;;
14056;SDS011;7103;54.300;10.180;2023-03-14T00:13:51;0.20;;;0.20;;
14056;SDS011;7103;54.300;10.180;2023-03-14T00:16:18;0.30;;;0.30;;
14056;SDS011;7103;54.300;10.180;2023-03-14T00:18:46;0.20;;;0.20;;
14056;SDS011;7103;54.300;10.180;2023-03-14T00:21:13;0.20;;;0.20;;
14056;SDS011;7103;54.300;10.180;2023-03-14T00:23:41;0.20;;;0.20;;
14056;SDS011;7103;54.300;10.180;2023-03-14T00:26:09;0.20;;;0.20;;
14056;SDS011;7103;54.300;10.180;2023-03-14T00:28:40;0.20;;;0.20;;
14056;SDS011;7103;54.300;10.180;2023-03-14T00:31:08;0.20;;;0.20;;
14056;SDS011;7103;54.300;10.180;2023-03-14T00:33:37;0.20;;;0.20;;
14056;SDS011;7103;54.300;10.180;2023-03-14T00:36:05;0.20;;;0.20;;
14056;SDS011;7103;54.300;10.180;2023-03-14T00:38:35;0.20;;;0.20;;
14056;SDS011;7103;54.300;10.180;2023-03-14T00:41:04;0.30;;;0.30;;
14056;SDS011;7103;54.300;10.180;2023-03-14T00:43:32;0.20;;;0.20;;
14056;SDS011;7103;54.300;10.180;2023-03-14T00:46:00;0.20;;;0.20;;
14056;SDS011;7103;54.300;10.180;2023-03-14T00:48:27;0.30;;;0.30;;
14056;SDS011;7103;54.300;10.180;2023-03-14T00:50:55;0.20;;;0.20;;
14056;SDS011;7103;54.300;10.180;2023-03-14T00:53:22;0.30;;;0.30;;
14056;SDS011;7103;54.300;10.180;2023-03-14T00:55:50;0.20;;;0.20;;
14056;SDS011;7103;54.300;10.180;2023-03-14T00:58:17;0.20;;;0.20;;
14056;SDS011;7103;54.300;10.180;2023-03-14T01:00:45;0.20;;;0.20;;
14056;SDS011;7103;54.300;10.180;2023-03-14T01:03:13;0.20;;;0.20;;
14056;SDS011;7103;54.300;10.180;2023-03-14T01:05:40;0.20;;;0.20;;
14056;SDS011;7103;54.300;10.180;2023-03-14T01:08:07;0.20;;;0.20;;
14056;SDS011;7103;54.300;10.180;2023-03-14T01:10:37;0.23;;;0.23;;
14056;SDS011;7103;54.300;10.180;2023-03-14T01:13:06;0.20;;;0.20;;
14056;SDS011;7103;54.300;10.180;2023-03-14T01:15:33;0.20;;;0.20;;
14056;SDS011;7103;54.300;10.180;2023-03-14T01:18:01;0.20;;;0.20;;
14056;SDS011;7103;54.300;10.180;2023-03-14T01:20:28;0.20;;;0.20;;
14056;SDS011;7103;54.300;10.180;2023-03-14T01:22:55;0.20;;;0.20;;
14056;SDS011;7103;54.300;10.180;2023-03-14T01:25:22;0.20;;;0.20;;
14056;SDS011;7103;54.300;10.180;2023-03-14T01:27:49;0.20;;;0.20;;
14056;SDS011;7103;54.300;10.180;2023-03-14T01:30:16;0.20;;;0.20;;
14056;SDS011;7103;54.300;10.180;2023-03-14T01:32:43;0.20;;;0.20;;
14056;SDS011;7103;54.300;10.180;2023-03-14T01:35:10;0.20;;;0.20;;
14056;SDS011;7103;54.300;10.180;2023-03-14T01:37:37;0.30;;;0.30;;
14056;SDS011;7103;54.300;10.180;2023-03-14T01:40:04;0.30;;;0.30;;
14056;SDS011;7103;54.300;10.180;2023-03-14T01:57:55;0.20;;;0.20;;
14056;SDS011;7103;54.300;10.180;2023-03-14T02:00:26;0.20;;;0.20;;
14056;SDS011;7103;54.300;10.180;2023-03-14T02:02:55;0.20;;;0.20;;
14056;SDS011;7103;54.300;10.180;2023-03-14T02:05:28;0.20;;;0.20;;
14056;SDS011;7103;54.300;10.180;2023-03-14T02:07:59;0.20;;;0.20;;
14056;SDS011;7103;54.300;10.180;2023-03-14T02:10:31;0.20;;;0.20;;
14056;SDS011;7103;54.300;10.180;2023-03-14T02:13:01;0.20;;;0.20;;
14056;SDS011;7103;54.300;10.180;2023-03-14T02:15:30;0.30;;;0.30;;
14056;SDS011;7103;54.300;10.180;2023-03-14T02:17:58;0.20;;;0.20;;
14056;SDS011;7103;54.300;10.180;2023-03-14T02:23:11;0.30;;;0.30;;
14056;SDS011;7103;54.300;10.180;2023-03-14T02:25:48;0.20;;;0.20;;
14056;SDS011;7103;54.300;10.180;2023-03-14T02:28:24;0.30;;;0.30;;
14056;SDS011;7103;54.300;10.180;2023-03-14T02:30:51;0.20;;;0.20;;
14056;SDS011;7103;54.300;10.180;2023-03-14T02:33:19;0.30;;;0.30;;
14056;SDS011;7103;54.300;10.180;2023-03-14T02:35:49;0.20;;;0.20;;
14056;SDS011;7103;54.300;10.180;2023-03-14T02:38:21;0.20;;;0.20;;
14056;SDS011;7103;54.300;10.180;2023-03-14T02:41:07;0.27;;;0.27;;
14056;SDS011;7103;54.300;10.180;2023-03-14T02:43:34;0.20;;;0.20;;
14056;SDS011;7103;54.300;10.180;2023-03-14T02:46:02;0.20;;;0.20;;
14056;SDS011;7103;54.300;10.180;2023-03-14T02:48:32;0.20;;;0.20;;
14056;SDS011;7103;54.300;10.180;2023-03-14T02:51:02;0.30;;;0.30;;
14056;SDS011;7103;54.300;10.180;2023-03-14T02:53:30;0.20;;;0.20;;
14056;SDS011;7103;54.300;10.180;2023-03-14T02:55:59;0.20;;;0.20;;
14056;SDS011;7103;54.300;10.180;2023-03-14T02:58:27;0.20;;;0.20;;
14056;SDS011;7103;54.300;10.180;2023-03-14T03:00:55;0.20;;;0.20;;
14056;SDS011;7103;54.300;10.180;2023-03-14T03:03:22;0.20;;;0.20;;
14056;SDS011;7103;54.300;10.180;2023-03-14T03:05:50;0.20;;;0.20;;
14056;SDS011;7103;54.300;10.180;2023-03-14T03:08:18;0.30;;;0.30;;
14056;SDS011;7103;54.300;10.180;2023-03-14T03:10:46;0.20;;;0.20;;
14056;SDS011;7103;54.300;10.180;2023-03-14T03:13:14;0.20;;;0.20;;
14056;SDS011;7103;54.300;10.180;2023-03-14T03:15:41;0.30;;;0.30;;
14056;SDS011;7103;54.300;10.180;2023-03-14T03:18:08;0.20;;;0.20;;
14056;SDS011;7103;54.300;10.180;2023-03-14T03:20:35;0.20;;;0.20;;
14056;SDS011;7103;54.300;10.180;2023-03-14T03:23:03;0.20;;;0.20;;
14056;SDS011;7103;54.300;10.180;2023-03-14T03:25:30;0.20;;;0.20;;
14056;SDS011;7103;54.300;10.180;2023-03-14T03:27:57;0.20;;;0.20;;
14056;SDS011;7103;54.300;10.180;2023-03-14T03:30:24;0.20;;;0.20;;
14056;SDS011;7103;54.300;10.180;2023-03-14T03:32:51;0.20;;;0.20;;
14056;SDS011;7103;54.300;10.180;2023-03-14T03:35:18;0.20;;;0.20;;
14056;SDS011;7103;54.300;10.180;2023-03-14T03:37:45;0.20;;;0.20;;
14056;SDS011;7103;54.300;10.180;2023-03-14T03:40:12;0.20;;;0.20;;
14056;SDS011;7103;54.300;10.180;2023-03-14T03:42:39;0.20;;;0.20;;
14056;SDS011;7103;54.300;10.180;2023-03-14T03:45:06;0.20;;;0.20;;
14056;SDS011;7103;54.300;10.180;2023-03-14T03:47:33;0.20;;;0.20;;
14056;SDS011;7103;54.300;10.180;2023-03-14T03:50:00;0.20;;;0.20;;
14056;SDS011;7103;54.300;10.180;2023-03-14T03:52:28;0.20;;;0.20;;
14056;SDS011;7103;54.300;10.180;2023-03-14T03:54:55;0.20;;;0.20;;
14056;SDS011;7103;54.300;10.180;2023-03-14T03:57:22;0.20;;;0.20;;
14056;SDS011;7103;54.300;10.180;2023-03-14T03:59:49;0.20;;;0.20;;
14056;SDS011;7103;54.300;10.180;2023-03-14T04:02:16;0.20;;;0.20;;
14056;SDS011;7103;54.300;10.180;2023-03-14T04:04:43;0.20;;;0.20;;
14056;SDS011;7103;54.300;10.180;2023-03-14T04:07:10;0.20;;;0.20;;
14056;SDS011;7103;54.300;10.180;2023-03-14T04:09:40;0.10;;;0.10;;
14056;SDS011;7103;54.300;10.180;2023-03-14T04:12:07;0.10;;;0.10;;
14056;SDS011;7103;54.300;10.180;2023-03-14T04:14:34;0.10;;;0.10;;
14056;SDS011;7103;54.300;10.180;2023-03-14T04:17:01;0.10;;;0.10;;
14056;SDS011;7103;54.300;10.180;2023-03-14T04:19:28;0.10;;;0.10;;
14056;SDS011;7103;54.300;10.180;2023-03-14T04:21:54;0.10;;;0.10;;
14056;SDS011;7103;54.300;10.180;2023-03-14T04:24:21;0.10;;;0.10;;
14056;SDS011;7103;54.300;10.180;2023-03-14T04:26:48;0.10;;;0.10;;
14056;SDS011;7103;54.300;10.180;2023-03-14T04:29:15;0.10;;;0.10;;
14056;SDS011;7103;54.300;10.180;2023-03-14T04:31:42;0.10;;;0.10;;
14056;SDS011;7103;54.300;10.180;2023-03-14T04:34:09;0.10;;;0.10;;
14056;SDS011;7103;54.300;10.180;2023-03-14T04:36:36;0.10;;;0.10;;
14056;SDS011;7103;54.300;10.180;2023-03-14T04:39:05;0.10;;;0.10;;
14056;SDS011;7103;54.300;10.180;2023-03-14T04:41:32;0.10;;;0.10;;
14056;SDS011;7103;54.300;10.180;2023-03-14T04:43:59;0.10;;;0.10;;
14056;SDS011;7103;54.300;10.180;2023-03-14T04:46:26;0.00;;;0.00;;
14056;SDS011;7103;54.300;10.180;2023-03-14T04:48:53;0.10;;;0.10;;
14056;SDS011;7103;54.300;10.180;2023-03-14T04:51:22;0.10;;;0.10;;
14056;SDS011;7103;54.300;10.180;2023-03-14T04:53:49;0.10;;;0.10;;
14056;SDS011;7103;54.300;10.180;2023-03-14T04:56:16;0.10;;;0.10;;
14056;SDS011;7103;54.300;10.180;2023-03-14T04:58:43;0.10;;;0.10;;
14056;SDS011;7103;54.300;10.180;2023-03-14T05:01:10;0.10;;;0.10;;
14056;SDS011;7103;54.300;10.180;2023-03-14T05:03:37;0.00;;;0.00;;
14056;SDS011;7103;54.300;10.180;2023-03-14T05:06:04;0.00;;;0.00;;
14056;SDS011;7103;54.300;10.180;2023-03-14T05:08:31;0.10;;;0.10;;
14056;SDS011;7103;54.300;10.180;2023-03-14T05:10:58;0.03;;;0.03;;
14056;SDS011;7103;54.300;10.180;2023-03-14T05:13:25;0.00;;;0.00;;
14056;SDS011;7103;54.300;10.180;2023-03-14T05:15:53;0.10;;;0.10;;
14056;SDS011;7103;54.300;10.180;2023-03-14T05:18:21;0.10;;;0.10;;
14056;SDS011;7103;54.300;10.180;2023-03-14T05:20:50;0.00;;;0.00;;
14056;SDS011;7103;54.300;10.180;2023-03-14T05:23:18;0.00;;;0.00;;
14056;SDS011;7103;54.300;10.180;2023-03-14T05:25:45;0.00;;;0.00;;
14056;SDS011;7103;54.300;10.180;2023-03-14T05:28:12;0.10;;;0.10;;
14056;SDS011;7103;54.300;10.180;2023-03-14T05:30:39;0.10;;;0.10;;
14056;SDS011;7103;54.300;10.180;2023-03-14T05:33:06;0.00;;;0.00;;
14056;SDS011;7103;54.300;10.180;2023-03-14T05:35:33;0.10;;;0.10;;
14056;SDS011;7103;54.300;10.180;2023-03-14T05:38:00;0.10;;;0.10;;
14056;SDS011;7103;54.300;10.180;2023-03-14T05:40:27;0.10;;;0.10;;
14056;SDS011;7103;54.300;10.180;2023-03-14T05:42:53;0.10;;;0.10;;
14056;SDS011;7103;54.300;10.180;2023-03-14T05:45:20;0.10;;;0.10;;
14056;SDS011;7103;54.300;10.180;2023-03-14T05:47:47;0.00;;;0.00;;
14056;SDS011;7103;54.300;10.180;2023-03-14T05:50:14;0.10;;;0.10;;
14056;SDS011;7103;54.300;10.180;2023-03-14T05:52:41;0.00;;;0.00;;
14056;SDS011;7103;54.300;10.180;2023-03-14T05:55:08;0.10;;;0.10;;
14056;SDS011;7103;54.300;10.180;2023-03-14T05:57:35;0.10;;;0.10;;
14056;SDS011;7103;54.300;10.180;2023-03-14T06:00:14;0.07;;;0.07;;
14056;SDS011;7103;54.300;10.180;2023-03-14T06:02:42;0.10;;;0.10;;
14056;SDS011;7103;54.300;10.180;2023-03-14T06:05:09;0.10;;;0.10;;
14056;SDS011;7103;54.300;10.180;2023-03-14T06:07:36;0.00;;;0.00;;
14056;SDS011;7103;54.300;10.180;2023-03-14T06:10:03;0.10;;;0.10;;
14056;SDS011;7103;54.300;10.180;2023-03-14T06:12:31;0.10;;;0.10;;
14056;SDS011;7103;54.300;10.180;2023-03-14T06:14:58;0.10;;;0.10;;
14056;SDS011;7103;54.300;10.180;2023-03-14T06:17:25;0.10;;;0.10;;
14056;SDS011;7103;54.300;10.180;2023-03-14T06:19:52;0.00;;;0.00;;
14056;SDS011;7103;54.300;10.180;2023-03-14T06:22:18;0.10;;;0.10;;
14056;SDS011;7103;54.300;10.180;2023-03-14T06:24:46;0.00;;;0.00;;
14056;SDS011;7103;54.300;10.180;2023-03-14T06:27:12;0.00;;;0.00;;
14056;SDS011;7103;54.300;10.180;2023-03-14T06:29:39;0.00;;;0.00;;
14056;SDS011;7103;54.300;10.180;2023-03-14T06:32:06;0.00;;;0.00;;
14056;SDS011;7103;54.300;10.180;2023-03-14T06:34:33;0.00;;;0.00;;
14056;SDS011;7103;54.300;10.180;2023-03-14T06:37:00;0.07;;;0.07;;
14056;SDS011;7103;54.300;10.180;2023-03-14T06:39:27;0.00;;;0.00;;
14056;SDS011;7103;54.300;10.180;2023-03-14T06:41:54;0.10;;;0.10;;
14056;SDS011;7103;54.300;10.180;2023-03-14T06:44:21;0.07;;;0.07;;
14056;SDS011;7103;54.300;10.180;2023-03-14T06:46:48;0.10;;;0.10;;
14056;SDS011;7103;54.300;10.180;2023-03-14T06:49:15;0.10;;;0.10;;
14056;SDS011;7103;54.300;10.180;2023-03-14T06:51:42;0.10;;;0.10;;
14056;SDS011;7103;54.300;10.180;2023-03-14T06:54:08;0.10;;;0.10;;
14056;SDS011;7103;54.300;10.180;2023-03-14T06:56:35;0.10;;;0.10;;
14056;SDS011;7103;54.300;10.180;2023-03-14T06:59:02;0.00;;;0.00;;
14056;SDS011;7103;54.300;10.180;2023-03-14T07:01:29;0.00;;;0.00;;
14056;SDS011;7103;54.300;10.180;2023-03-14T07:03:59;0.10;;;0.10;;
14056;SDS011;7103;54.300;10.180;2023-03-14T07:06:25;0.10;;;0.10;;
14056;SDS011;7103;54.300;10.180;2023-03-14T07:08:53;0.10;;;0.10;;
14056;SDS011;7103;54.300;10.180;2023-03-14T07:11:19;0.10;;;0.10;;
14056;SDS011;7103;54.300;10.180;2023-03-14T07:13:46;0.10;;;0.10;;
14056;SDS011;7103;54.300;10.180;2023-03-14T07:16:14;0.10;;;0.10;;
14056;SDS011;7103;54.300;10.180;2023-03-14T07:18:41;0.10;;;0.10;;
14056;SDS011;7103;54.300;10.180;2023-03-14T07:21:08;0.10;;;0.10;;
14056;SDS011;7103;54.300;10.180;2023-03-14T07:23:35;0.10;;;0.10;;
14056;SDS011;7103;54.300;10.180;2023-03-14T07:26:02;0.10;;;0.10;;
14056;SDS011;7103;54.300;10.180;2023-03-14T07:28:29;0.03;;;0.03;;
14056;SDS011;7103;54.300;10.180;2023-03-14T07:30:56;0.10;;;0.10;;
14056;SDS011;7103;54.300;10.180;2023-03-14T07:33:23;0.10;;;0.10;;
14056;SDS011;7103;54.300;10.180;2023-03-14T07:35:50;0.10;;;0.10;;
14056;SDS011;7103;54.300;10.180;2023-03-14T07:38:17;0.00;;;0.00;;
14056;SDS011;7103;54.300;10.180;2023-03-14T07:40:48;0.10;;;0.10;;
14056;SDS011;7103;54.300;10.180;2023-03-14T07:43:15;0.00;;;0.00;;
14056;SDS011;7103;54.300;10.180;2023-03-14T07:45:45;0.00;;;0.00;;
14056;SDS011;7103;54.300;10.180;2023-03-14T07:48:16;0.00;;;0.00;;
14056;SDS011;7103;54.300;10.180;2023-03-14T07:50:43;0.10;;;0.10;;
14056;SDS011;7103;54.300;10.180;2023-03-14T07:53:10;0.10;;;0.10;;
14056;SDS011;7103;54.300;10.180;2023-03-14T07:55:37;0.10;;;0.10;;
14056;SDS011;7103;54.300;10.180;2023-03-14T07:58:05;0.10;;;0.10;;
14056;SDS011;7103;54.300;10.180;2023-03-14T08:00:32;0.10;;;0.10;;
14056;SDS011;7103;54.300;10.180;2023-03-14T08:02:59;0.10;;;0.10;;
14056;SDS011;7103;54.300;10.180;2023-03-14T08:05:26;0.10;;;0.10;;
14056;SDS011;7103;54.300;10.180;2023-03-14T08:07:53;0.10;;;0.10;;
14056;SDS011;7103;54.300;10.180;2023-03-14T08:10:20;0.10;;;0.10;;
14056;SDS011;7103;54.300;10.180;2023-03-14T08:12:53;0.10;;;0.10;;
14056;SDS011;7103;54.300;10.180;2023-03-14T08:15:22;0.10;;;0.10;;
14056;SDS011;7103;54.300;10.180;2023-03-14T08:17:50;0.10;;;0.10;;
14056;SDS011;7103;54.300;10.180;2023-03-14T08:20:18;0.00;;;0.00;;
14056;SDS011;7103;54.300;10.180;2023-03-14T08:22:45;0.10;;;0.10;;
14056;SDS011;7103;54.300;10.180;2023-03-14T08:25:12;0.10;;;0.10;;
14056;SDS011;7103;54.300;10.180;2023-03-14T08:27:39;0.10;;;0.10;;
14056;SDS011;7103;54.300;10.180;2023-03-14T08:30:09;0.10;;;0.10;;
14056;SDS011;7103;54.300;10.180;2023-03-14T08:32:38;0.00;;;0.00;;
14056;SDS011;7103;54.300;10.180;2023-03-14T08:35:06;0.10;;;0.10;;
14056;SDS011;7103;54.300;10.180;2023-03-14T08:37:34;0.00;;;0.00;;
14056;SDS011;7103;54.300;10.180;2023-03-14T08:40:02;0.10;;;0.10;;
14056;SDS011;7103;54.300;10.180;2023-03-14T08:42:34;0.10;;;0.10;;
14056;SDS011;7103;54.300;10.180;2023-03-14T08:45:01;0.10;;;0.10;;
14056;SDS011;7103;54.300;10.180;2023-03-14T08:47:28;0.10;;;0.10;;
14056;SDS011;7103;54.300;10.180;2023-03-14T08:49:55;0.00;;;0.00;;
14056;SDS011;7103;54.300;10.180;2023-03-14T08:52:22;0.10;;;0.10;;
14056;SDS011;7103;54.300;10.180;2023-03-14T08:54:49;0.10;;;0.10;;
14056;SDS011;7103;54.300;10.180;2023-03-14T08:57:16;0.00;;;0.00;;
14056;SDS011;7103;54.300;10.180;2023-03-14T08:59:43;0.10;;;0.10;;
14056;SDS011;7103;54.300;10.180;2023-03-14T09:02:10;0.10;;;0.10;;
14056;SDS011;7103;54.300;10.180;2023-03-14T09:04:39;0.10;;;0.10;;
14056;SDS011;7103;54.300;10.180;2023-03-14T09:07:06;0.10;;;0.10;;
14056;SDS011;7103;54.300;10.180;2023-03-14T09:09:33;0.10;;;0.10;;
14056;SDS011;7103;54.300;10.180;2023-03-14T09:12:00;0.10;;;0.10;;
14056;SDS011;7103;54.300;10.180;2023-03-14T09:14:27;0.10;;;0.10;;
14056;SDS011;7103;54.300;10.180;2023-03-14T09:16:55;0.10;;;0.10;;
14056;SDS011;7103;54.300;10.180;2023-03-14T09:19:22;0.10;;;0.10;;
14056;SDS011;7103;54.300;10.180;2023-03-14T09:21:48;0.10;;;0.10;;
14056;SDS011;7103;54.300;10.180;2023-03-14T09:24:16;0.20;;;0.20;;
14056;SDS011;7103;54.300;10.180;2023-03-14T09:26:43;0.20;;;0.20;;
14056;SDS011;7103;54.300;10.180;2023-03-14T09:29:10;0.10;;;0.10;;
14056;SDS011;7103;54.300;10.180;2023-03-14T09:31:37;0.10;;;0.10;;
14056;SDS011;7103;54.300;10.180;2023-03-14T09:34:04;0.10;;;0.10;;
14056;SDS011;7103;54.300;10.180;2023-03-14T09:36:31;0.10;;;0.10;;
14056;SDS011;7103;54.300;10.180;2023-03-14T09:38:58;0.20;;;0.20;;
14056;SDS011;7103;54.300;10.180;2023-03-14T09:44:09;0.10;;;0.10;;
14056;SDS011;7103;54.300;10.180;2023-03-14T09:46:55;0.13;;;0.13;;
14056;SDS011;7103;54.300;10.180;2023-03-14T09:49:27;0.10;;;0.10;;
14056;SDS011;7103;54.300;10.180;2023-03-14T09:52:30;0.10;;;0.10;;
14056;SDS011;7103;54.300;10.180;2023-03-14T09:55:05;0.10;;;0.10;;
14056;SDS011;7103;54.300;10.180;2023-03-14T09:57:38;0.10;;;0.10;;
14056;SDS011;7103;54.300;10.180;2023-03-14T10:00:20;0.10;;;0.10;;
14056;SDS011;7103;54.300;10.180;2023-03-14T10:02:53;0.10;;;0.10;;
14056;SDS011;7103;54.300;10.180;2023-03-14T10:05:47;0.10;;;0.10;;
14056;SDS011;7103;54.300;10.180;2023-03-14T10:08:14;0.10;;;0.10;;
14056;SDS011;7103;54.300;10.180;2023-03-14T10:10:41;0.10;;;0.10;;
14056;SDS011;7103;54.300;10.180;2023-03-14T10:13:24;0.10;;;0.10;;
14056;SDS011;7103;54.300;10.180;2023-03-14T10:18:24;0.10;;;0.10;;
14056;SDS011;7103;54.300;10.180;2023-03-14T10:23:53;0.10;;;0.10;;
14056;SDS011;7103;54.300;10.180;2023-03-14T10:26:24;0.10;;;0.10;;
14056;SDS011;7103;54.300;10.180;2023-03-14T10:29:00;0.10;;;0.10;;
14056;SDS011;7103;54.300;10.180;2023-03-14T10:31:50;0.10;;;0.10;;
14056;SDS011;7103;54.300;10.180;2023-03-14T10:34:24;0.10;;;0.10;;
14056;SDS011;7103;54.300;10.180;2023-03-14T10:36:53;0.10;;;0.10;;
14056;SDS011;7103;54.300;10.180;2023-03-14T10:39:29;0.10;;;0.10;;
14056;SDS011;7103;54.300;10.180;2023-03-14T10:42:15;0.10;;;0.10;;
14056;SDS011;7103;54.300;10.180;2023-03-14T10:44:44;0.10;;;0.10;;
14056;SDS011;7103;54.300;10.180;2023-03-14T10:47:19;0.10;;;0.10;;
14056;SDS011;7103;54.300;10.180;2023-03-14T10:49:49;0.10;;;0.10;;
14056;SDS011;7103;54.300;10.180;2023-03-14T10:52:27;0.10;;;0.10;;
14056;SDS011;7103;54.300;10.180;2023-03-14T10:55:15;0.10;;;0.10;;
14056;SDS011;7103;54.300;10.180;2023-03-14T10:57:43;0.10;;;0.10;;
14056;SDS011;7103;54.300;10.180;2023-03-14T11:05:31;0.10;;;0.10;;
14056;SDS011;7103;54.300;10.180;2023-03-14T11:08:09;0.10;;;0.10;;
14056;SDS011;7103;54.300;10.180;2023-03-14T11:10:46;0.23;;;0.23;;
14056;SDS011;7103;54.300;10.180;2023-03-14T11:25:02;0.20;;;0.20;;
14056;SDS011;7103;54.300;10.180;2023-03-14T11:27:48;0.20;;;0.20;;
14056;SDS011;7103;54.300;10.180;2023-03-14T11:33:14;0.20;;;0.20;;
14056;SDS011;7103;54.300;10.180;2023-03-14T11:35:49;0.20;;;0.20;;
14056;SDS011;7103;54.300;10.180;2023-03-14T11:41:01;0.20;;;0.20;;
14056;SDS011;7103;54.300;10.180;2023-03-14T11:43:33;0.20;;;0.20;;
14056;SDS011;7103;54.300;10.180;2023-03-14T11:46:17;0.20;;;0.20;;
14056;SDS011;7103;54.300;10.180;2023-03-14T11:51:24;0.20;;;0.20;;
14056;SDS011;7103;54.300;10.180;2023-03-14T11:53:57;0.20;;;0.20;;
14056;SDS011;7103;54.300;10.180;2023-03-14T11:59:17;0.20;;;0.20;;
14056;SDS011;7103;54.300;10.180;2023-03-14T12:01:51;0.20;;;0.20;;
14056;SDS011;7103;54.300;10.180;2023-03-14T12:07:07;0.20;;;0.20;;
14056;SDS011;7103;54.300;10.180;2023-03-14T12:09:42;0.20;;;0.20;;
14056;SDS011;7103;54.300;10.180;2023-03-14T12:12:10;0.20;;;0.20;;
14056;SDS011;7103;54.300;10.180;2023-03-14T12:14:47;0.20;;;0.20;;
14056;SDS011;7103;54.300;10.180;2023-03-14T12:17:25;0.20;;;0.20;;
14056;SDS011;7103;54.300;10.180;2023-03-14T12:20:01;0.20;;;0.20;;
14056;SDS011;7103;54.300;10.180;2023-03-14T12:22:54;0.20;;;0.20;;
14056;SDS011;7103;54.300;10.180;2023-03-14T12:25:28;0.20;;;0.20;;
14056;SDS011;7103;54.300;10.180;2023-03-14T12:30:36;0.20;;;0.20;;
14056;SDS011;7103;54.300;10.180;2023-03-14T12:35:44;0.20;;;0.20;;
14056;SDS011;7103;54.300;10.180;2023-03-14T12:41:06;0.20;;;0.20;;
14056;SDS011;7103;54.300;10.180;2023-03-14T12:43:50;0.10;;;0.10;;
14056;SDS011;7103;54.300;10.180;2023-03-14T12:48:45;0.20;;;0.20;;
14056;SDS011;7103;54.300;10.180;2023-03-14T12:51:34;0.20;;;0.20;;
14056;SDS011;7103;54.300;10.180;2023-03-14T12:57:54;0.20;;;0.20;;
14056;SDS011;7103;54.300;10.180;2023-03-14T13:00:31;0.20;;;0.20;;
14056;SDS011;7103;54.300;10.180;2023-03-14T13:03:15;0.20;;;0.20;;
14056;SDS011;7103;54.300;10.180;2023-03-14T13:05:52;0.20;;;0.20;;
14056;SDS011;7103;54.300;10.180;2023-03-14T13:08:40;0.20;;;0.20;;
14056;SDS011;7103;54.300;10.180;2023-03-14T13:11:10;0.20;;;0.20;;
14056;SDS011;7103;54.300;10.180;2023-03-14T13:13:46;0.30;;;0.30;;
14056;SDS011;7103;54.300;10.180;2023-03-14T13:16:17;0.20;;;0.20;;
14056;SDS011;7103;54.300;10.180;2023-03-14T13:18:49;0.20;;;0.20;;
14056;SDS011;7103;54.300;10.180;2023-03-14T13:21:18;0.20;;;0.20;;
14056;SDS011;7103;54.300;10.180;2023-03-14T13:26:44;0.20;;;0.20;;
14056;SDS011;7103;54.300;10.180;2023-03-14T13:29:22;0.20;;;0.20;;
14056;SDS011;7103;54.300;10.180;2023-03-14T13:31:50;0.20;;;0.20;;
14056;SDS011;7103;54.300;10.180;2023-03-14T13:34:26;0.20;;;0.20;;
14056;SDS011;7103;54.300;10.180;2023-03-14T13:36:55;0.20;;;0.20;;
14056;SDS011;7103;54.300;10.180;2023-03-14T13:39:23;0.20;;;0.20;;
14056;SDS011;7103;54.300;10.180;2023-03-14T13:41:52;0.20;;;0.20;;
14056;SDS011;7103;54.300;10.180;2023-03-14T13:47:03;0.27;;;0.27;;
14056;SDS011;7103;54.300;10.180;2023-03-14T13:49:35;0.20;;;0.20;;
14056;SDS011;7103;54.300;10.180;2023-03-14T13:52:20;0.20;;;0.20;;
14056;SDS011;7103;54.300;10.180;2023-03-14T13:54:54;0.20;;;0.20;;
14056;SDS011;7103;54.300;10.180;2023-03-14T13:57:23;0.20;;;0.20;;
14056;SDS011;7103;54.300;10.180;2023-03-14T13:59:59;0.20;;;0.20;;
14056;SDS011;7103;54.300;10.180;2023-03-14T14:02:27;0.20;;;0.20;;
14056;SDS011;7103;54.300;10.180;2023-03-14T14:04:55;0.20;;;0.20;;
14056;SDS011;7103;54.300;10.180;2023-03-14T14:07:22;0.20;;;0.20;;
14056;SDS011;7103;54.300;10.180;2023-03-14T14:09:51;0.20;;;0.20;;
14056;SDS011;7103;54.300;10.180;2023-03-14T14:14:56;0.20;;;0.20;;
14056;SDS011;7103;54.300;10.180;2023-03-14T14:17:25;0.20;;;0.20;;
14056;SDS011;7103;54.300;10.180;2023-03-14T14:20:35;0.20;;;0.20;;
14056;SDS011;7103;54.300;10.180;2023-03-14T14:23:13;0.20;;;0.20;;
14056;SDS011;7103;54.300;10.180;2023-03-14T14:25:43;0.20;;;0.20;;
14056;SDS011;7103;54.300;10.180;2023-03-14T14:28:31;0.20;;;0.20;;
14056;SDS011;7103;54.300;10.180;2023-03-14T14:33:45;0.20;;;0.20;;
14056;SDS011;7103;54.300;10.180;2023-03-14T14:36:19;0.20;;;0.20;;
14056;SDS011;7103;54.300;10.180;2023-03-14T14:39:00;0.20;;;0.20;;
14056;SDS011;7103;54.300;10.180;2023-03-14T14:41:32;0.30;;;0.30;;
14056;SDS011;7103;54.300;10.180;2023-03-14T14:44:02;0.30;;;0.30;;
14056;SDS011;7103;54.300;10.180;2023-03-14T14:46:31;0.30;;;0.30;;
14056;SDS011;7103;54.300;10.180;2023-03-14T14:49:09;0.20;;;0.20;;
14056;SDS011;7103;54.300;10.180;2023-03-14T14:51:49;0.20;;;0.20;;
14056;SDS011;7103;54.300;10.180;2023-03-14T14:54:18;0.20;;;0.20;;
14056;SDS011;7103;54.300;10.180;2023-03-14T14:57:01;0.10;;;0.10;;
14056;SDS011;7103;54.300;10.180;2023-03-14T14:59:30;0.20;;;0.20;;
14056;SDS011;7103;54.300;10.180;2023-03-14T15:01:58;0.27;;;0.27;;
14056;SDS011;7103;54.300;10.180;2023-03-14T15:04:27;0.20;;;0.20;;
14056;SDS011;7103;54.300;10.180;2023-03-14T15:06:57;0.20;;;0.20;;
14056;SDS011;7103;54.300;10.180;2023-03-14T15:09:24;0.20;;;0.20;;
14056;SDS011;7103;54.300;10.180;2023-03-14T15:11:50;0.30;;;0.30;;
14056;SDS011;7103;54.300;10.180;2023-03-14T15:14:17;0.20;;;0.20;;
14056;SDS011;7103;54.300;10.180;2023-03-14T15:16:44;0.20;;;0.20;;
14056;SDS011;7103;54.300;10.180;2023-03-14T15:19:15;0.20;;;0.20;;
14056;SDS011;7103;54.300;10.180;2023-03-14T15:21:51;0.20;;;0.20;;
14056;SDS011;7103;54.300;10.180;2023-03-14T15:24:19;0.30;;;0.30;;
14056;SDS011;7103;54.300;10.180;2023-03-14T15:26:46;0.30;;;0.30;;
14056;SDS011;7103;54.300;10.180;2023-03-14T15:29:13;0.20;;;0.20;;
14056;SDS011;7103;54.300;10.180;2023-03-14T15:31:40;0.30;;;0.30;;
14056;SDS011;7103;54.300;10.180;2023-03-14T15:34:07;0.20;;;0.20;;
14056;SDS011;7103;54.300;10.180;2023-03-14T15:36:35;0.20;;;0.20;;
14056;SDS011;7103;54.300;10.180;2023-03-14T15:39:03;0.20;;;0.20;;
14056;SDS011;7103;54.300;10.180;2023-03-14T15:41:31;0.20;;;0.20;;
14056;SDS011;7103;54.300;10.180;2023-03-14T15:43:58;0.20;;;0.20;;
14056;SDS011;7103;54.300;10.180;2023-03-14T15:46:25;0.20;;;0.20;;
14056;SDS011;7103;54.300;10.180;2023-03-14T15:48:55;0.23;;;0.23;;
14056;SDS011;7103;54.300;10.180;2023-03-14T15:51:22;0.20;;;0.20;;
14056;SDS011;7103;54.300;10.180;2023-03-14T15:53:49;0.20;;;0.20;;
14056;SDS011;7103;54.300;10.180;2023-03-14T15:56:18;0.20;;;0.20;;
14056;SDS011;7103;54.300;10.180;2023-03-14T15:58:46;0.20;;;0.20;;
14056;SDS011;7103;54.300;10.180;2023-03-14T16:01:13;0.20;;;0.20;;
14056;SDS011;7103;54.300;10.180;2023-03-14T16:03:45;0.20;;;0.20;;
14056;SDS011;7103;54.300;10.180;2023-03-14T16:06:13;0.20;;;0.20;;
14056;SDS011;7103;54.300;10.180;2023-03-14T16:08:40;0.20;;;0.20;;
14056;SDS011;7103;54.300;10.180;2023-03-14T16:11:08;0.20;;;0.20;;
14056;SDS011;7103;54.300;10.180;2023-03-14T16:13:36;0.20;;;0.20;;
14056;SDS011;7103;54.300;10.180;2023-03-14T16:16:04;0.20;;;0.20;;
14056;SDS011;7103;54.300;10.180;2023-03-14T16:18:33;0.20;;;0.20;;
14056;SDS011;7103;54.300;10.180;2023-03-14T16:21:05;0.20;;;0.20;;
14056;SDS011;7103;54.300;10.180;2023-03-14T16:23:34;0.20;;;0.20;;
14056;SDS011;7103;54.300;10.180;2023-03-14T16:26:05;0.20;;;0.20;;